SDR442 LDSP-EDDG
Flight info
| Callsign | SDR442 |
|---|---|
| Flight time | 1h 38m |
| Altitude | 38000 |
| Route | ZDA1V ZDA DCT ROPUS DCT UNKEN DCT TENLO Y102 ALIBU L604 BIGGE T281 HMM HMM1A |
| Aircraft | A20N/M-SDE2E3FGHIRWXY/LB1 |
Departure
| Time | 2026-05-08 18:16 |
|---|---|
| Airport | Split Saint Jerome Airport (LDSP) |
Arrival
| Time | 2026-05-08 19:54 |
|---|---|
| Airport | Münster Osnabrück Airport (EDDG) |
| Time | Latitude | Longitude | Altitude | Speed | Heading |
|---|---|---|---|---|---|
| 2026-05-08 17:50 | 43.53618 | 16.29672 | 74 ft | 0 kts | 109° |
| 2026-05-08 18:09 | 43.53620 | 16.29659 | 63 ft | 2 kts | 83° |
| 2026-05-08 18:09 | 43.53617 | 16.29637 | 65 ft | 2 kts | 87° |
| 2026-05-08 18:09 | 43.53618 | 16.29618 | 69 ft | 1 kts | 70° |
| 2026-05-08 18:10 | 43.53614 | 16.29608 | 69 ft | 1 kts | 33° |
| 2026-05-08 18:10 | 43.53607 | 16.29603 | 69 ft | 1 kts | 356° |
| 2026-05-08 18:10 | 43.53605 | 16.29603 | 69 ft | 0 kts | 348° |
| 2026-05-08 18:12 | 43.53618 | 16.29598 | 70 ft | 5 kts | 343° |
| 2026-05-08 18:12 | 43.53660 | 16.29626 | 72 ft | 12 kts | 77° |
| 2026-05-08 18:12 | 43.53688 | 16.29672 | 75 ft | 15 kts | 48° |
| 2026-05-08 18:12 | 43.53778 | 16.29817 | 72 ft | 24 kts | 49° |
| 2026-05-08 18:13 | 43.53872 | 16.29996 | 67 ft | 17 kts | 55° |
| 2026-05-08 18:13 | 43.53939 | 16.30068 | 58 ft | 6 kts | 6° |
| 2026-05-08 18:13 | 43.53993 | 16.30091 | 64 ft | 11 kts | 18° |
| 2026-05-08 18:13 | 43.54076 | 16.30148 | 63 ft | 15 kts | 43° |
| 2026-05-08 18:14 | 43.54173 | 16.30304 | 59 ft | 28 kts | 50° |
| 2026-05-08 18:14 | 43.54302 | 16.30518 | 61 ft | 31 kts | 56° |
| 2026-05-08 18:14 | 43.54437 | 16.30773 | 57 ft | 36 kts | 52° |
| 2026-05-08 18:14 | 43.54545 | 16.31017 | 55 ft | 7 kts | 110° |
| 2026-05-08 18:15 | 43.54564 | 16.31028 | 51 ft | 9 kts | 318° |
| 2026-05-08 18:15 | 43.54530 | 16.30946 | 58 ft | 21 kts | 233° |
| 2026-05-08 18:15 | 43.54259 | 16.30465 | 61 ft | 103 kts | 230° |
| 2026-05-08 18:15 | 43.53689 | 16.29433 | 165 ft | 155 kts | 233° |
| 2026-05-08 18:16 | 43.53046 | 16.28274 | 955 ft | 155 kts | 232° |
| 2026-05-08 18:16 | 43.52341 | 16.27175 | 1616 ft | 155 kts | 231° |
| 2026-05-08 18:16 | 43.51566 | 16.26065 | 2189 ft | 168 kts | 230° |
| 2026-05-08 18:16 | 43.50719 | 16.24797 | 2728 ft | 191 kts | 232° |
| 2026-05-08 18:17 | 43.49812 | 16.23326 | 3289 ft | 216 kts | 234° |
| 2026-05-08 18:17 | 43.48811 | 16.21620 | 4013 ft | 238 kts | 234° |
| 2026-05-08 18:17 | 43.47758 | 16.19784 | 4585 ft | 258 kts | 233° |
| 2026-05-08 18:17 | 43.46675 | 16.17691 | 5180 ft | 273 kts | 246° |
| 2026-05-08 18:18 | 43.46260 | 16.15142 | 6009 ft | 277 kts | 273° |
| 2026-05-08 18:18 | 43.46716 | 16.12597 | 6804 ft | 280 kts | 299° |
| 2026-05-08 18:18 | 43.47957 | 16.10520 | 7537 ft | 284 kts | 322° |
| 2026-05-08 18:18 | 43.49556 | 16.08878 | 8169 ft | 287 kts | 327° |
| 2026-05-08 18:19 | 43.51209 | 16.07342 | 8807 ft | 290 kts | 328° |
| 2026-05-08 18:19 | 43.52888 | 16.05751 | 9461 ft | 295 kts | 327° |
| 2026-05-08 18:19 | 43.54571 | 16.04090 | 10113 ft | 298 kts | 326° |
| 2026-05-08 18:19 | 43.56226 | 16.02396 | 10690 ft | 300 kts | 323° |
| 2026-05-08 18:20 | 43.57817 | 16.00480 | 11324 ft | 308 kts | 320° |
| 2026-05-08 18:20 | 43.59454 | 15.98469 | 11967 ft | 319 kts | 319° |
| 2026-05-08 18:20 | 43.61147 | 15.96393 | 12620 ft | 328 kts | 319° |
| 2026-05-08 18:20 | 43.62858 | 15.94295 | 13279 ft | 337 kts | 319° |
| 2026-05-08 18:21 | 43.64636 | 15.92113 | 13934 ft | 345 kts | 319° |
| 2026-05-08 18:21 | 43.66457 | 15.89879 | 14529 ft | 352 kts | 319° |
| 2026-05-08 18:21 | 43.68284 | 15.87634 | 15133 ft | 359 kts | 319° |
| 2026-05-08 18:21 | 43.70173 | 15.85314 | 15755 ft | 365 kts | 318° |
| 2026-05-08 18:22 | 43.72094 | 15.82948 | 16387 ft | 371 kts | 318° |
| 2026-05-08 18:22 | 43.74011 | 15.80587 | 17020 ft | 375 kts | 317° |
| 2026-05-08 18:22 | 43.75975 | 15.78166 | 17681 ft | 378 kts | 317° |
| 2026-05-08 18:22 | 43.77954 | 15.75724 | 18349 ft | 381 kts | 317° |
| 2026-05-08 18:23 | 43.79944 | 15.73265 | 18936 ft | 384 kts | 317° |
| 2026-05-08 18:23 | 43.81929 | 15.70811 | 19525 ft | 387 kts | 317° |
| 2026-05-08 18:23 | 43.83958 | 15.68300 | 20125 ft | 389 kts | 317° |
| 2026-05-08 18:23 | 43.85956 | 15.65825 | 20746 ft | 391 kts | 317° |
| 2026-05-08 18:24 | 43.88007 | 15.63282 | 21384 ft | 393 kts | 317° |
| 2026-05-08 18:24 | 43.90040 | 15.60760 | 22023 ft | 395 kts | 317° |
| 2026-05-08 18:24 | 43.92105 | 15.58196 | 22691 ft | 396 kts | 316° |
| 2026-05-08 18:24 | 43.94131 | 15.55677 | 23347 ft | 396 kts | 316° |
| 2026-05-08 18:25 | 43.96176 | 15.53132 | 23969 ft | 396 kts | 316° |
| 2026-05-08 18:25 | 43.98244 | 15.50556 | 24465 ft | 399 kts | 316° |
| 2026-05-08 18:25 | 44.00329 | 15.47954 | 24824 ft | 405 kts | 316° |
| 2026-05-08 18:25 | 44.02411 | 15.45355 | 25179 ft | 410 kts | 316° |
| 2026-05-08 18:26 | 44.04552 | 15.42680 | 25546 ft | 415 kts | 316° |
| 2026-05-08 18:26 | 44.06718 | 15.39976 | 25915 ft | 420 kts | 317° |
| 2026-05-08 18:26 | 44.09053 | 15.37478 | 26286 ft | 425 kts | 324° |
| 2026-05-08 18:26 | 44.11595 | 15.35403 | 26658 ft | 429 kts | 331° |
| 2026-05-08 18:27 | 44.14348 | 15.33719 | 27048 ft | 433 kts | 335° |
| 2026-05-08 18:27 | 44.16214 | 15.32674 | 27303 ft | 435 kts | 335° |
| 2026-05-08 18:27 | 44.19954 | 15.30550 | 27830 ft | 438 kts | 335° |
| 2026-05-08 18:27 | 44.22785 | 15.28935 | 28230 ft | 440 kts | 335° |
| 2026-05-08 18:28 | 44.25628 | 15.27314 | 28636 ft | 441 kts | 335° |
| 2026-05-08 18:28 | 44.28454 | 15.25704 | 29043 ft | 442 kts | 335° |
| 2026-05-08 18:28 | 44.31320 | 15.24070 | 29464 ft | 443 kts | 335° |
| 2026-05-08 18:28 | 44.34184 | 15.22437 | 29891 ft | 444 kts | 335° |
| 2026-05-08 18:29 | 44.37018 | 15.20819 | 30286 ft | 444 kts | 335° |
| 2026-05-08 18:29 | 44.39891 | 15.19177 | 30653 ft | 445 kts | 334° |
| 2026-05-08 18:29 | 44.42731 | 15.17552 | 31026 ft | 445 kts | 334° |
| 2026-05-08 18:29 | 44.45603 | 15.15907 | 31375 ft | 446 kts | 334° |
| 2026-05-08 18:30 | 44.48467 | 15.14263 | 31644 ft | 449 kts | 334° |
| 2026-05-08 18:30 | 44.51386 | 15.12587 | 31891 ft | 452 kts | 334° |
| 2026-05-08 18:30 | 44.54310 | 15.10906 | 32163 ft | 455 kts | 334° |
| 2026-05-08 18:30 | 44.57220 | 15.09232 | 32423 ft | 456 kts | 334° |
| 2026-05-08 18:31 | 44.60164 | 15.07538 | 32686 ft | 455 kts | 334° |
| 2026-05-08 18:31 | 44.63080 | 15.05858 | 32955 ft | 455 kts | 334° |
| 2026-05-08 18:31 | 44.66000 | 15.04173 | 33223 ft | 455 kts | 334° |
| 2026-05-08 18:31 | 44.68936 | 15.02477 | 33501 ft | 454 kts | 334° |
| 2026-05-08 18:32 | 44.71859 | 15.00786 | 33768 ft | 454 kts | 334° |
| 2026-05-08 18:32 | 44.74749 | 14.99112 | 34038 ft | 453 kts | 334° |
| 2026-05-08 18:32 | 44.77683 | 14.97411 | 34286 ft | 452 kts | 334° |
| 2026-05-08 18:32 | 44.80562 | 14.95740 | 34516 ft | 452 kts | 334° |
| 2026-05-08 18:33 | 44.83480 | 14.94044 | 34755 ft | 451 kts | 334° |
| 2026-05-08 18:33 | 44.86400 | 14.92346 | 34998 ft | 451 kts | 334° |
| 2026-05-08 18:33 | 44.89270 | 14.90674 | 35243 ft | 451 kts | 334° |
| 2026-05-08 18:33 | 44.92180 | 14.88978 | 35485 ft | 450 kts | 334° |
| 2026-05-08 18:34 | 44.95063 | 14.87294 | 35733 ft | 449 kts | 334° |
| 2026-05-08 18:34 | 44.97932 | 14.85618 | 35981 ft | 448 kts | 334° |
| 2026-05-08 18:34 | 45.00829 | 14.83924 | 36228 ft | 447 kts | 334° |
| 2026-05-08 18:34 | 45.03679 | 14.82255 | 36477 ft | 446 kts | 334° |
| 2026-05-08 18:35 | 45.06555 | 14.80569 | 36737 ft | 445 kts | 334° |
| 2026-05-08 18:35 | 45.09389 | 14.78906 | 36996 ft | 443 kts | 334° |
| 2026-05-08 18:35 | 45.12221 | 14.77243 | 37255 ft | 441 kts | 333° |
| 2026-05-08 18:35 | 45.15068 | 14.75568 | 37526 ft | 439 kts | 333° |
| 2026-05-08 18:36 | 45.17854 | 14.73928 | 37804 ft | 437 kts | 333° |
| 2026-05-08 18:36 | 45.20672 | 14.72267 | 38015 ft | 436 kts | 333° |
| 2026-05-08 18:36 | 45.26314 | 14.68933 | 38021 ft | 444 kts | 333° |
| 2026-05-08 18:37 | 45.32056 | 14.65535 | 38024 ft | 445 kts | 333° |
| 2026-05-08 18:37 | 45.37743 | 14.62167 | 38048 ft | 445 kts | 333° |
| 2026-05-08 18:38 | 45.43446 | 14.58778 | 38044 ft | 445 kts | 333° |
| 2026-05-08 18:38 | 45.49186 | 14.55359 | 38046 ft | 445 kts | 333° |
| 2026-05-08 18:39 | 45.54874 | 14.51964 | 38041 ft | 446 kts | 333° |
| 2026-05-08 18:39 | 45.60618 | 14.48530 | 38046 ft | 447 kts | 333° |
| 2026-05-08 18:40 | 45.66352 | 14.45094 | 38052 ft | 447 kts | 333° |
| 2026-05-08 18:40 | 45.72092 | 14.41647 | 38046 ft | 447 kts | 333° |
| 2026-05-08 18:41 | 45.77824 | 14.38195 | 38050 ft | 447 kts | 333° |
| 2026-05-08 18:41 | 45.83554 | 14.34737 | 38052 ft | 448 kts | 333° |
| 2026-05-08 18:42 | 45.89302 | 14.31260 | 38037 ft | 452 kts | 333° |
| 2026-05-08 18:42 | 45.95137 | 14.27721 | 38040 ft | 459 kts | 333° |
| 2026-05-08 18:43 | 46.01082 | 14.24110 | 38041 ft | 465 kts | 333° |
| 2026-05-08 18:43 | 46.07033 | 14.20481 | 38050 ft | 467 kts | 332° |
| 2026-05-08 18:44 | 46.12693 | 14.16028 | 38044 ft | 459 kts | 324° |
| 2026-05-08 18:44 | 46.18109 | 14.11216 | 38048 ft | 460 kts | 325° |
| 2026-05-08 18:45 | 46.23581 | 14.06381 | 38047 ft | 460 kts | 325° |
| 2026-05-08 18:45 | 46.29016 | 14.01544 | 38048 ft | 460 kts | 324° |
| 2026-05-08 18:46 | 46.34453 | 13.96687 | 38051 ft | 459 kts | 324° |
| 2026-05-08 18:46 | 46.39878 | 13.91828 | 38047 ft | 460 kts | 324° |
| 2026-05-08 18:47 | 46.45319 | 13.86943 | 38047 ft | 460 kts | 324° |
| 2026-05-08 18:47 | 46.50760 | 13.82048 | 38053 ft | 460 kts | 324° |
| 2026-05-08 18:48 | 46.56180 | 13.77160 | 38054 ft | 460 kts | 324° |
| 2026-05-08 18:48 | 46.61645 | 13.72220 | 38052 ft | 460 kts | 324° |
| 2026-05-08 18:49 | 46.67064 | 13.67308 | 38056 ft | 461 kts | 324° |
| 2026-05-08 18:49 | 46.72485 | 13.62383 | 38067 ft | 461 kts | 324° |
| 2026-05-08 18:50 | 46.77948 | 13.57408 | 38060 ft | 460 kts | 324° |
| 2026-05-08 18:50 | 46.83377 | 13.52452 | 38061 ft | 461 kts | 324° |
| 2026-05-08 18:51 | 46.88792 | 13.47498 | 38078 ft | 461 kts | 324° |
| 2026-05-08 18:51 | 46.94212 | 13.42526 | 38090 ft | 460 kts | 324° |
| 2026-05-08 18:52 | 46.99639 | 13.37535 | 38079 ft | 461 kts | 324° |
| 2026-05-08 18:52 | 47.05074 | 13.32528 | 38084 ft | 461 kts | 324° |
| 2026-05-08 18:53 | 47.10502 | 13.27511 | 38076 ft | 461 kts | 324° |
| 2026-05-08 18:53 | 47.15913 | 13.22499 | 38087 ft | 462 kts | 324° |
| 2026-05-08 18:54 | 47.21355 | 13.17446 | 38078 ft | 462 kts | 324° |
| 2026-05-08 18:54 | 47.26767 | 13.12409 | 38083 ft | 461 kts | 324° |
| 2026-05-08 18:55 | 47.33969 | 13.05687 | 38083 ft | 461 kts | 324° |
| 2026-05-08 18:56 | 47.39395 | 13.00606 | 38080 ft | 461 kts | 324° |
| 2026-05-08 18:56 | 47.44807 | 12.95527 | 38076 ft | 461 kts | 324° |
| 2026-05-08 18:57 | 47.50208 | 12.90446 | 38065 ft | 461 kts | 324° |
| 2026-05-08 18:57 | 47.55626 | 12.85337 | 38077 ft | 461 kts | 324° |
| 2026-05-08 18:58 | 47.61031 | 12.80227 | 38060 ft | 462 kts | 324° |
| 2026-05-08 18:58 | 47.66419 | 12.75121 | 38067 ft | 461 kts | 324° |
| 2026-05-08 18:59 | 47.71839 | 12.69970 | 38066 ft | 461 kts | 324° |
| 2026-05-08 18:59 | 47.77250 | 12.64816 | 38061 ft | 461 kts | 324° |
| 2026-05-08 19:00 | 47.82628 | 12.59685 | 38059 ft | 460 kts | 324° |
| 2026-05-08 19:00 | 47.88136 | 12.54771 | 38054 ft | 461 kts | 326° |
| 2026-05-08 19:01 | 47.93679 | 12.49963 | 38062 ft | 461 kts | 326° |
| 2026-05-08 19:01 | 47.99197 | 12.45113 | 38050 ft | 461 kts | 326° |
| 2026-05-08 19:02 | 48.04684 | 12.40257 | 38053 ft | 461 kts | 326° |
| 2026-05-08 19:02 | 48.10199 | 12.35360 | 38055 ft | 461 kts | 326° |
| 2026-05-08 19:03 | 48.15713 | 12.30451 | 38060 ft | 461 kts | 326° |
| 2026-05-08 19:03 | 48.19813 | 12.26793 | 38057 ft | 461 kts | 326° |
| 2026-05-08 19:04 | 48.25341 | 12.21851 | 38068 ft | 460 kts | 326° |
| 2026-05-08 19:04 | 48.30824 | 12.16937 | 38074 ft | 460 kts | 326° |
| 2026-05-08 19:05 | 48.36339 | 12.11981 | 38065 ft | 460 kts | 326° |
| 2026-05-08 19:05 | 48.41798 | 12.07063 | 38066 ft | 460 kts | 326° |
| 2026-05-08 19:06 | 48.47313 | 12.02083 | 38072 ft | 460 kts | 326° |
| 2026-05-08 19:06 | 48.52790 | 11.97123 | 38075 ft | 460 kts | 326° |
| 2026-05-08 19:07 | 48.58269 | 11.92149 | 38074 ft | 460 kts | 326° |
| 2026-05-08 19:07 | 48.63749 | 11.87162 | 38077 ft | 460 kts | 326° |
| 2026-05-08 19:08 | 48.69238 | 11.82153 | 38075 ft | 460 kts | 326° |
| 2026-05-08 19:08 | 48.74710 | 11.77147 | 38076 ft | 460 kts | 326° |
| 2026-05-08 19:09 | 48.80176 | 11.72134 | 38075 ft | 460 kts | 326° |
| 2026-05-08 19:09 | 48.85672 | 11.67080 | 38077 ft | 460 kts | 326° |
| 2026-05-08 19:10 | 48.91132 | 11.62047 | 38080 ft | 460 kts | 326° |
| 2026-05-08 19:10 | 48.96595 | 11.56997 | 38081 ft | 460 kts | 326° |
| 2026-05-08 19:11 | 49.02063 | 11.51930 | 38090 ft | 460 kts | 326° |
| 2026-05-08 19:11 | 49.07515 | 11.46865 | 38096 ft | 460 kts | 326° |
| 2026-05-08 19:12 | 49.12954 | 11.41798 | 38096 ft | 460 kts | 326° |
| 2026-05-08 19:12 | 49.18408 | 11.36704 | 38097 ft | 460 kts | 326° |
| 2026-05-08 19:13 | 49.23893 | 11.31569 | 38097 ft | 460 kts | 326° |
| 2026-05-08 19:13 | 49.29328 | 11.26465 | 38102 ft | 460 kts | 326° |
| 2026-05-08 19:14 | 49.34760 | 11.21353 | 38103 ft | 460 kts | 326° |
| 2026-05-08 19:14 | 49.40205 | 11.16214 | 38103 ft | 459 kts | 326° |
| 2026-05-08 19:15 | 49.45636 | 11.11075 | 38105 ft | 459 kts | 326° |
| 2026-05-08 19:15 | 49.51099 | 11.05894 | 38106 ft | 460 kts | 326° |
| 2026-05-08 19:16 | 49.56522 | 11.00769 | 38102 ft | 460 kts | 326° |
| 2026-05-08 19:16 | 49.61980 | 10.95644 | 38105 ft | 460 kts | 326° |
| 2026-05-08 19:17 | 49.67463 | 10.90478 | 38103 ft | 460 kts | 326° |
| 2026-05-08 19:17 | 49.72914 | 10.85324 | 38108 ft | 460 kts | 326° |
| 2026-05-08 19:18 | 49.78361 | 10.80160 | 38111 ft | 460 kts | 326° |
| 2026-05-08 19:18 | 49.83827 | 10.74966 | 38119 ft | 460 kts | 326° |
| 2026-05-08 19:19 | 49.89266 | 10.69783 | 38120 ft | 460 kts | 326° |
| 2026-05-08 19:19 | 49.94710 | 10.64581 | 38121 ft | 460 kts | 326° |
| 2026-05-08 19:20 | 50.00168 | 10.59350 | 38119 ft | 460 kts | 326° |
| 2026-05-08 19:20 | 50.05588 | 10.54138 | 38124 ft | 460 kts | 326° |
| 2026-05-08 19:21 | 50.11028 | 10.48893 | 38124 ft | 460 kts | 326° |
| 2026-05-08 19:21 | 50.16460 | 10.43642 | 38127 ft | 460 kts | 326° |
| 2026-05-08 19:22 | 50.21890 | 10.38380 | 38129 ft | 460 kts | 326° |
| 2026-05-08 19:22 | 50.27346 | 10.33104 | 38134 ft | 460 kts | 326° |
| 2026-05-08 19:23 | 50.32791 | 10.27831 | 38129 ft | 460 kts | 326° |
| 2026-05-08 19:23 | 50.37992 | 10.22120 | 38133 ft | 457 kts | 317° |
| 2026-05-08 19:24 | 50.42533 | 10.15196 | 38134 ft | 455 kts | 312° |
| 2026-05-08 19:24 | 50.46911 | 10.07969 | 38134 ft | 455 kts | 310° |
| 2026-05-08 19:25 | 50.51169 | 10.00666 | 38140 ft | 455 kts | 310° |
| 2026-05-08 19:25 | 50.55422 | 9.93312 | 38131 ft | 454 kts | 309° |
| 2026-05-08 19:26 | 50.59429 | 9.85692 | 38139 ft | 454 kts | 307° |
| 2026-05-08 19:26 | 50.63426 | 9.77987 | 38143 ft | 454 kts | 307° |
| 2026-05-08 19:27 | 50.67453 | 9.70297 | 38130 ft | 449 kts | 308° |
| 2026-05-08 19:27 | 50.69412 | 9.66560 | 38137 ft | 437 kts | 308° |
| 2026-05-08 19:27 | 50.71315 | 9.62924 | 38134 ft | 432 kts | 308° |
| 2026-05-08 19:28 | 50.75184 | 9.55511 | 38138 ft | 438 kts | 308° |
| 2026-05-08 19:28 | 50.79037 | 9.48129 | 38085 ft | 437 kts | 308° |
| 2026-05-08 19:28 | 50.80980 | 9.44399 | 37767 ft | 438 kts | 308° |
| 2026-05-08 19:29 | 50.82898 | 9.40712 | 37269 ft | 438 kts | 308° |
| 2026-05-08 19:29 | 50.84833 | 9.36985 | 36746 ft | 436 kts | 308° |
| 2026-05-08 19:29 | 50.86767 | 9.33256 | 36234 ft | 434 kts | 308° |
| 2026-05-08 19:29 | 50.88665 | 9.29590 | 35747 ft | 434 kts | 308° |
| 2026-05-08 19:30 | 50.90587 | 9.25870 | 35261 ft | 435 kts | 308° |
| 2026-05-08 19:30 | 50.92489 | 9.22186 | 34789 ft | 436 kts | 308° |
| 2026-05-08 19:30 | 50.94416 | 9.18447 | 34321 ft | 436 kts | 308° |
| 2026-05-08 19:30 | 50.96341 | 9.14707 | 33800 ft | 437 kts | 308° |
| 2026-05-08 19:31 | 50.98268 | 9.10959 | 33251 ft | 437 kts | 308° |
| 2026-05-08 19:31 | 51.00173 | 9.07247 | 32710 ft | 439 kts | 308° |
| 2026-05-08 19:31 | 51.02113 | 9.03460 | 32198 ft | 441 kts | 308° |
| 2026-05-08 19:31 | 51.04056 | 8.99664 | 31671 ft | 442 kts | 308° |
| 2026-05-08 19:32 | 51.05975 | 8.95909 | 31173 ft | 443 kts | 308° |
| 2026-05-08 19:32 | 51.07924 | 8.92088 | 30676 ft | 444 kts | 308° |
| 2026-05-08 19:32 | 51.09870 | 8.88270 | 30179 ft | 442 kts | 308° |
| 2026-05-08 19:32 | 51.11799 | 8.84478 | 29611 ft | 438 kts | 308° |
| 2026-05-08 19:33 | 51.13706 | 8.80725 | 29042 ft | 432 kts | 308° |
| 2026-05-08 19:33 | 51.15563 | 8.77066 | 28495 ft | 427 kts | 308° |
| 2026-05-08 19:33 | 51.17427 | 8.73382 | 27947 ft | 424 kts | 308° |
| 2026-05-08 19:33 | 51.19281 | 8.69711 | 27408 ft | 421 kts | 308° |
| 2026-05-08 19:34 | 51.21091 | 8.66124 | 26894 ft | 418 kts | 308° |
| 2026-05-08 19:34 | 51.22911 | 8.62513 | 26384 ft | 414 kts | 308° |
| 2026-05-08 19:34 | 51.24696 | 8.58966 | 25934 ft | 411 kts | 308° |
| 2026-05-08 19:34 | 51.26478 | 8.55420 | 25477 ft | 409 kts | 308° |
| 2026-05-08 19:35 | 51.28260 | 8.51871 | 25019 ft | 407 kts | 308° |
| 2026-05-08 19:35 | 51.30036 | 8.48327 | 24598 ft | 404 kts | 307° |
| 2026-05-08 19:35 | 51.31778 | 8.44882 | 24176 ft | 402 kts | 310° |
| 2026-05-08 19:35 | 51.33736 | 8.41701 | 23754 ft | 400 kts | 317° |
| 2026-05-08 19:36 | 51.35872 | 8.38838 | 23261 ft | 398 kts | 319° |
| 2026-05-08 19:36 | 51.37989 | 8.36002 | 22767 ft | 395 kts | 319° |
| 2026-05-08 19:36 | 51.40064 | 8.33202 | 22283 ft | 392 kts | 319° |
| 2026-05-08 19:36 | 51.42150 | 8.30381 | 21788 ft | 389 kts | 319° |
| 2026-05-08 19:37 | 51.44197 | 8.27613 | 21333 ft | 387 kts | 319° |
| 2026-05-08 19:37 | 51.46256 | 8.24826 | 20869 ft | 384 kts | 319° |
| 2026-05-08 19:37 | 51.48303 | 8.22054 | 20409 ft | 382 kts | 319° |
| 2026-05-08 19:37 | 51.50330 | 8.19306 | 19957 ft | 380 kts | 319° |
| 2026-05-08 19:38 | 51.52326 | 8.16596 | 19520 ft | 377 kts | 319° |
| 2026-05-08 19:38 | 51.54329 | 8.13875 | 19080 ft | 375 kts | 319° |
| 2026-05-08 19:38 | 51.56310 | 8.11180 | 18636 ft | 372 kts | 319° |
| 2026-05-08 19:38 | 51.58267 | 8.08515 | 18191 ft | 370 kts | 319° |
| 2026-05-08 19:39 | 51.60235 | 8.05831 | 17702 ft | 368 kts | 319° |
| 2026-05-08 19:39 | 51.62190 | 8.03161 | 17222 ft | 365 kts | 319° |
| 2026-05-08 19:39 | 51.64101 | 8.00549 | 16758 ft | 363 kts | 319° |
| 2026-05-08 19:39 | 51.66043 | 7.97892 | 16290 ft | 360 kts | 319° |
| 2026-05-08 19:40 | 51.67922 | 7.95318 | 15837 ft | 355 kts | 319° |
| 2026-05-08 19:40 | 51.69802 | 7.92741 | 15380 ft | 351 kts | 319° |
| 2026-05-08 19:40 | 51.71626 | 7.90236 | 14949 ft | 346 kts | 319° |
| 2026-05-08 19:40 | 51.73468 | 7.87704 | 14508 ft | 343 kts | 319° |
| 2026-05-08 19:41 | 51.75255 | 7.85246 | 14098 ft | 338 kts | 319° |
| 2026-05-08 19:41 | 51.77021 | 7.82814 | 13912 ft | 327 kts | 319° |
| 2026-05-08 19:41 | 51.78712 | 7.80482 | 13855 ft | 311 kts | 319° |
| 2026-05-08 19:41 | 51.80313 | 7.78274 | 13794 ft | 297 kts | 319° |
| 2026-05-08 19:42 | 51.81856 | 7.76142 | 13731 ft | 283 kts | 318° |
| 2026-05-08 19:42 | 51.83304 | 7.74140 | 13686 ft | 269 kts | 318° |
| 2026-05-08 19:42 | 51.84721 | 7.72148 | 13469 ft | 272 kts | 314° |
| 2026-05-08 19:42 | 51.85851 | 7.69686 | 12978 ft | 272 kts | 295° |
| 2026-05-08 19:43 | 51.86473 | 7.66833 | 12466 ft | 273 kts | 285° |
| 2026-05-08 19:43 | 51.87010 | 7.63873 | 11987 ft | 272 kts | 286° |
| 2026-05-08 19:43 | 51.87558 | 7.60937 | 11516 ft | 271 kts | 286° |
| 2026-05-08 19:43 | 51.88104 | 7.58047 | 11052 ft | 271 kts | 286° |
| 2026-05-08 19:44 | 51.88653 | 7.55139 | 10601 ft | 270 kts | 286° |
| 2026-05-08 19:44 | 51.89204 | 7.52223 | 10158 ft | 269 kts | 286° |
| 2026-05-08 19:44 | 51.89750 | 7.49326 | 9712 ft | 267 kts | 286° |
| 2026-05-08 19:44 | 51.90283 | 7.46488 | 9307 ft | 263 kts | 286° |
| 2026-05-08 19:45 | 51.90634 | 7.44620 | 9065 ft | 259 kts | 286° |
| 2026-05-08 19:45 | 51.91318 | 7.40969 | 8668 ft | 250 kts | 286° |
| 2026-05-08 19:45 | 51.91657 | 7.39158 | 8490 ft | 246 kts | 286° |
| 2026-05-08 19:45 | 51.92321 | 7.35597 | 8255 ft | 256 kts | 286° |
| 2026-05-08 19:46 | 51.92665 | 7.33753 | 8265 ft | 257 kts | 286° |
| 2026-05-08 19:46 | 51.93182 | 7.30976 | 8287 ft | 257 kts | 286° |
| 2026-05-08 19:46 | 51.94689 | 7.25874 | 8146 ft | 248 kts | 319° |
| 2026-05-08 19:47 | 51.96186 | 7.24598 | 7719 ft | 248 kts | 347° |
| 2026-05-08 19:47 | 51.97913 | 7.24690 | 7223 ft | 252 kts | 17° |
| 2026-05-08 19:47 | 51.99492 | 7.25951 | 6732 ft | 253 kts | 28° |
| 2026-05-08 19:47 | 52.01007 | 7.27316 | 6224 ft | 249 kts | 28° |
| 2026-05-08 19:48 | 52.02524 | 7.28673 | 5704 ft | 246 kts | 28° |
| 2026-05-08 19:48 | 52.04025 | 7.30006 | 5185 ft | 243 kts | 30° |
| 2026-05-08 19:48 | 52.05296 | 7.31721 | 4685 ft | 240 kts | 52° |
| 2026-05-08 19:48 | 52.06133 | 7.34043 | 4207 ft | 236 kts | 67° |
| 2026-05-08 19:49 | 52.06701 | 7.36478 | 4007 ft | 221 kts | 72° |
| 2026-05-08 19:49 | 52.07173 | 7.38762 | 3772 ft | 210 kts | 71° |
| 2026-05-08 19:49 | 52.07641 | 7.40957 | 3525 ft | 200 kts | 72° |
| 2026-05-08 19:49 | 52.08079 | 7.43028 | 3292 ft | 185 kts | 72° |
| 2026-05-08 19:50 | 52.08471 | 7.44876 | 3061 ft | 162 kts | 72° |
| 2026-05-08 19:50 | 52.08818 | 7.46513 | 2835 ft | 144 kts | 72° |
| 2026-05-08 19:50 | 52.09124 | 7.47960 | 2641 ft | 130 kts | 72° |
| 2026-05-08 19:50 | 52.09424 | 7.49383 | 2470 ft | 133 kts | 73° |
| 2026-05-08 19:51 | 52.09724 | 7.50797 | 2284 ft | 130 kts | 73° |
| 2026-05-08 19:51 | 52.10019 | 7.52192 | 2113 ft | 131 kts | 73° |
| 2026-05-08 19:51 | 52.10313 | 7.53584 | 1931 ft | 131 kts | 73° |
| 2026-05-08 19:51 | 52.10606 | 7.54967 | 1757 ft | 130 kts | 73° |
| 2026-05-08 19:52 | 52.10901 | 7.56365 | 1576 ft | 130 kts | 73° |
| 2026-05-08 19:52 | 52.11195 | 7.57752 | 1400 ft | 129 kts | 73° |
| 2026-05-08 19:52 | 52.11485 | 7.59126 | 1221 ft | 127 kts | 73° |
| 2026-05-08 19:52 | 52.11772 | 7.60484 | 1048 ft | 129 kts | 72° |
| 2026-05-08 19:53 | 52.12062 | 7.61876 | 863 ft | 129 kts | 72° |
| 2026-05-08 19:53 | 52.12350 | 7.63275 | 695 ft | 131 kts | 72° |
| 2026-05-08 19:53 | 52.12650 | 7.64667 | 488 ft | 130 kts | 70° |
| 2026-05-08 19:53 | 52.12947 | 7.66068 | 313 ft | 130 kts | 71° |
| 2026-05-08 19:54 | 52.13240 | 7.67455 | 171 ft | 127 kts | 71° |
| 2026-05-08 19:54 | 52.13497 | 7.68641 | 166 ft | 91 kts | 70° |
| 2026-05-08 19:54 | 52.13647 | 7.69343 | 169 ft | 46 kts | 71° |
| 2026-05-08 19:54 | 52.13740 | 7.69782 | 168 ft | 27 kts | 71° |
| 2026-05-08 19:55 | 52.13743 | 7.70005 | 166 ft | 17 kts | 137° |
| 2026-05-08 19:55 | 52.13632 | 7.70070 | 168 ft | 16 kts | 165° |
| 2026-05-08 19:55 | 52.13622 | 7.70074 | 168 ft | 0 kts | 167° |
| 2026-05-08 19:55 | 52.13621 | 7.70074 | 168 ft | 0 kts | 170° |
| 2026-05-08 19:56 | 52.13597 | 7.70005 | 168 ft | 15 kts | 275° |
| 2026-05-08 19:56 | 52.13564 | 7.69800 | 168 ft | 22 kts | 253° |
| 2026-05-08 19:56 | 52.13513 | 7.69536 | 167 ft | 25 kts | 249° |
| 2026-05-08 19:56 | 52.13461 | 7.69284 | 167 ft | 22 kts | 250° |
| 2026-05-08 19:57 | 52.13377 | 7.69250 | 167 ft | 11 kts | 139° |
| 2026-05-08 19:57 | 52.13305 | 7.69292 | 167 ft | 13 kts | 163° |
| 2026-05-08 19:57 | 52.13239 | 7.69376 | 167 ft | 12 kts | 84° |
| 2026-05-08 19:57 | 52.13255 | 7.69452 | 167 ft | 1 kts | 59° |
| 2026-05-08 19:58 | 52.13252 | 7.69500 | 167 ft | 1 kts | 156° |
| 2026-05-08 19:58 | 52.13222 | 7.69486 | 167 ft | 8 kts | 193° |
| 2026-05-08 19:58 | 52.13187 | 7.69469 | 167 ft | 0 kts | 197° |